sensor_id;sensor_type;location;lat;lon;timestamp;pressure;altitude;pressure_sealevel;temperature;humidity
44131;BME280;29792;48.726;9.248;2023-02-16T00:00:40;97883.66;;;5.17;78.41
44131;BME280;29792;48.726;9.248;2023-02-16T00:03:10;97884.00;;;5.10;78.14
44131;BME280;29792;48.726;9.248;2023-02-16T00:05:36;97888.59;;;5.02;78.09
44131;BME280;29792;48.726;9.248;2023-02-16T00:08:01;97891.47;;;4.94;77.45
44131;BME280;29792;48.726;9.248;2023-02-16T00:10:30;97895.97;;;4.87;78.80
44131;BME280;29792;48.726;9.248;2023-02-16T00:12:57;97893.09;;;4.76;77.82
44131;BME280;29792;48.726;9.248;2023-02-16T00:15:48;97890.22;;;4.64;78.95
44131;BME280;29792;48.726;9.248;2023-02-16T00:18:19;97887.19;;;4.55;79.13
44131;BME280;29792;48.726;9.248;2023-02-16T00:20:46;97888.28;;;4.50;79.66
44131;BME280;29792;48.726;9.248;2023-02-16T00:23:11;97888.53;;;4.44;79.92
44131;BME280;29792;48.726;9.248;2023-02-16T00:25:37;97888.78;;;4.38;80.56
44131;BME280;29792;48.726;9.248;2023-02-16T00:28:04;97889.06;;;4.30;80.86
44131;BME280;29792;48.726;9.248;2023-02-16T00:30:31;97886.13;;;4.20;80.44
44131;BME280;29792;48.726;9.248;2023-02-16T00:32:57;97888.97;;;4.13;81.10
44131;BME280;29792;48.726;9.248;2023-02-16T00:35:22;97890.06;;;4.06;81.57
44131;BME280;29792;48.726;9.248;2023-02-16T00:37:48;97888.59;;;4.00;81.43
44131;BME280;29792;48.726;9.248;2023-02-16T00:40:15;97887.91;;;3.97;81.95
44131;BME280;29792;48.726;9.248;2023-02-16T00:42:42;97886.44;;;3.91;82.24
44131;BME280;29792;48.726;9.248;2023-02-16T00:45:19;97896.72;;;3.88;81.88
44131;BME280;29792;48.726;9.248;2023-02-16T00:47:47;97893.47;;;3.84;82.75
44131;BME280;29792;48.726;9.248;2023-02-16T00:52:42;97899.84;;;3.73;83.18
44131;BME280;29792;48.726;9.248;2023-02-16T00:55:08;97890.81;;;3.66;82.70
44131;BME280;29792;48.726;9.248;2023-02-16T00:57:38;97895.22;;;3.61;83.09
44131;BME280;29792;48.726;9.248;2023-02-16T01:00:14;97893.72;;;3.57;83.51
44131;BME280;29792;48.726;9.248;2023-02-16T01:02:46;97895.53;;;3.53;83.43
44131;BME280;29792;48.726;9.248;2023-02-16T01:05:12;97890.63;;;3.49;83.44
44131;BME280;29792;48.726;9.248;2023-02-16T01:07:37;97888.25;;;3.44;83.13
44131;BME280;29792;48.726;9.248;2023-02-16T01:10:22;97890.16;;;3.39;83.49
44131;BME280;29792;48.726;9.248;2023-02-16T01:13:06;97886.13;;;3.33;83.49
44131;BME280;29792;48.726;9.248;2023-02-16T01:15:31;97888.84;;;3.29;84.10
44131;BME280;29792;48.726;9.248;2023-02-16T01:17:56;97884.75;;;3.25;84.05
44131;BME280;29792;48.726;9.248;2023-02-16T01:20:24;97889.06;;;3.23;83.46
44131;BME280;29792;48.726;9.248;2023-02-16T01:22:49;97886.69;;;3.18;84.04
44131;BME280;29792;48.726;9.248;2023-02-16T01:25:15;97894.41;;;3.15;83.60
44131;BME280;29792;48.726;9.248;2023-02-16T01:27:41;97893.75;;;3.10;84.07
44131;BME280;29792;48.726;9.248;2023-02-16T01:30:13;97887.25;;;3.03;84.05
44131;BME280;29792;48.726;9.248;2023-02-16T01:32:39;97894.25;;;2.96;84.90
44131;BME280;29792;48.726;9.248;2023-02-16T01:35:05;97889.28;;;2.93;85.10
44131;BME280;29792;48.726;9.248;2023-02-16T01:37:30;97886.91;;;2.89;85.45
44131;BME280;29792;48.726;9.248;2023-02-16T01:39:55;97893.78;;;2.85;85.30
44131;BME280;29792;48.726;9.248;2023-02-16T01:42:34;97883.88;;;2.79;86.29
44131;BME280;29792;48.726;9.248;2023-02-16T01:45:27;97878.16;;;2.74;86.74
44131;BME280;29792;48.726;9.248;2023-02-16T01:48:01;97875.78;;;2.69;87.51
44131;BME280;29792;48.726;9.248;2023-02-16T01:50:37;97879.34;;;2.64;88.37
44131;BME280;29792;48.726;9.248;2023-02-16T01:53:15;97881.16;;;2.60;88.73
44131;BME280;29792;48.726;9.248;2023-02-16T01:55:44;97882.06;;;2.59;89.18
44131;BME280;29792;48.726;9.248;2023-02-16T02:03:33;97875.91;;;2.66;91.82
44131;BME280;29792;48.726;9.248;2023-02-16T02:06:20;97868.75;;;2.78;92.14
44131;BME280;29792;48.726;9.248;2023-02-16T02:09:07;97863.41;;;2.85;91.70
44131;BME280;29792;48.726;9.248;2023-02-16T02:11:49;97864.09;;;2.90;91.87
44131;BME280;29792;48.726;9.248;2023-02-16T02:14:24;97852.16;;;2.94;91.12
44131;BME280;29792;48.726;9.248;2023-02-16T02:16:56;97858.03;;;2.94;91.06
44131;BME280;29792;48.726;9.248;2023-02-16T02:19:22;97852.88;;;2.97;91.31
44131;BME280;29792;48.726;9.248;2023-02-16T02:25:18;97850.91;;;3.05;90.54
44131;BME280;29792;48.726;9.248;2023-02-16T02:28:08;97857.28;;;3.16;90.68
44131;BME280;29792;48.726;9.248;2023-02-16T02:33:29;97848.53;;;3.24;90.01
44131;BME280;29792;48.726;9.248;2023-02-16T02:39:02;97845.75;;;3.30;89.04
44131;BME280;29792;48.726;9.248;2023-02-16T02:41:38;97846.56;;;3.31;89.18
44131;BME280;29792;48.726;9.248;2023-02-16T02:44:28;97847.44;;;3.30;88.88
44131;BME280;29792;48.726;9.248;2023-02-16T02:46:54;97842.53;;;3.25;88.09
44131;BME280;29792;48.726;9.248;2023-02-16T02:49:19;97843.50;;;3.23;88.58
44131;BME280;29792;48.726;9.248;2023-02-16T02:51:45;97847.78;;;3.21;88.10
44131;BME280;29792;48.726;9.248;2023-02-16T02:54:23;97848.78;;;3.17;88.54
44131;BME280;29792;48.726;9.248;2023-02-16T03:00:04;97842.47;;;3.05;88.18
44131;BME280;29792;48.726;9.248;2023-02-16T03:02:50;97845.09;;;3.02;88.18
44131;BME280;29792;48.726;9.248;2023-02-16T03:05:17;97843.59;;;2.98;88.68
44131;BME280;29792;48.726;9.248;2023-02-16T03:07:45;97843.00;;;2.91;88.58
44131;BME280;29792;48.726;9.248;2023-02-16T03:10:18;97838.25;;;2.82;88.33
44131;BME280;29792;48.726;9.248;2023-02-16T03:13:09;97844.47;;;2.74;88.46
44131;BME280;29792;48.726;9.248;2023-02-16T03:15:36;97837.97;;;2.66;88.59
44131;BME280;29792;48.726;9.248;2023-02-16T03:18:04;97839.06;;;2.59;89.05
44131;BME280;29792;48.726;9.248;2023-02-16T03:20:50;97844.31;;;2.53;89.31
44131;BME280;29792;48.726;9.248;2023-02-16T03:23:34;97842.06;;;2.46;89.43
44131;BME280;29792;48.726;9.248;2023-02-16T03:26:19;97840.53;;;2.42;89.54
44131;BME280;29792;48.726;9.248;2023-02-16T03:29:04;97842.44;;;2.35;89.82
44131;BME280;29792;48.726;9.248;2023-02-16T03:31:47;97839.34;;;2.27;90.06
44131;BME280;29792;48.726;9.248;2023-02-16T03:34:13;97836.25;;;2.19;90.28
44131;BME280;29792;48.726;9.248;2023-02-16T03:36:41;97840.66;;;2.12;90.58
44131;BME280;29792;48.726;9.248;2023-02-16T03:39:08;97836.69;;;2.05;90.63
44131;BME280;29792;48.726;9.248;2023-02-16T03:41:39;97830.16;;;2.00;91.16
44131;BME280;29792;48.726;9.248;2023-02-16T03:44:04;97848.78;;;1.96;91.50
44131;BME280;29792;48.726;9.248;2023-02-16T03:46:30;97843.81;;;1.94;91.60
44131;BME280;29792;48.726;9.248;2023-02-16T03:48:55;97845.59;;;1.90;92.04
44131;BME280;29792;48.726;9.248;2023-02-16T03:51:20;97842.28;;;1.88;92.08
44131;BME280;29792;48.726;9.248;2023-02-16T03:53:46;97849.13;;;1.86;92.23
44131;BME280;29792;48.726;9.248;2023-02-16T03:56:11;97850.84;;;1.84;92.72
44131;BME280;29792;48.726;9.248;2023-02-16T03:58:36;97853.41;;;1.83;92.68
44131;BME280;29792;48.726;9.248;2023-02-16T04:01:02;97861.88;;;1.82;92.76
44131;BME280;29792;48.726;9.248;2023-02-16T04:03:27;97862.75;;;1.81;93.44
44131;BME280;29792;48.726;9.248;2023-02-16T04:05:52;97862.84;;;1.78;93.07
44131;BME280;29792;48.726;9.248;2023-02-16T04:08:18;97864.63;;;1.74;93.11
44131;BME280;29792;48.726;9.248;2023-02-16T04:10:43;97862.97;;;1.73;93.55
44131;BME280;29792;48.726;9.248;2023-02-16T04:13:08;97871.41;;;1.72;93.35
44131;BME280;29792;48.726;9.248;2023-02-16T04:15:34;97863.13;;;1.69;93.99
44131;BME280;29792;48.726;9.248;2023-02-16T04:18:00;97863.19;;;1.67;94.47
44131;BME280;29792;48.726;9.248;2023-02-16T04:20:28;97863.19;;;1.67;94.32
44131;BME280;29792;48.726;9.248;2023-02-16T04:22:54;97861.53;;;1.66;94.65
44131;BME280;29792;48.726;9.248;2023-02-16T04:25:19;97858.97;;;1.68;94.36
44131;BME280;29792;48.726;9.248;2023-02-16T04:27:45;97867.41;;;1.67;94.37
44131;BME280;29792;48.726;9.248;2023-02-16T04:30:13;97874.16;;;1.66;94.44
44131;BME280;29792;48.726;9.248;2023-02-16T04:32:39;97864.88;;;1.67;94.53
44131;BME280;29792;48.726;9.248;2023-02-16T04:35:05;97872.50;;;1.65;94.48
44131;BME280;29792;48.726;9.248;2023-02-16T04:37:30;97876.66;;;1.66;94.92
44131;BME280;29792;48.726;9.248;2023-02-16T04:39:55;97874.19;;;1.65;94.98
44131;BME280;29792;48.726;9.248;2023-02-16T04:42:21;97868.34;;;1.63;94.88
44131;BME280;29792;48.726;9.248;2023-02-16T04:44:46;97871.81;;;1.60;94.75
44131;BME280;29792;48.726;9.248;2023-02-16T04:47:11;97878.59;;;1.58;94.50
44131;BME280;29792;48.726;9.248;2023-02-16T04:49:37;97872.81;;;1.54;94.37
44131;BME280;29792;48.726;9.248;2023-02-16T04:52:02;97871.25;;;1.50;94.55
44131;BME280;29792;48.726;9.248;2023-02-16T04:54:29;97869.78;;;1.43;94.78
44131;BME280;29792;48.726;9.248;2023-02-16T04:56:54;97871.63;;;1.38;94.42
44131;BME280;29792;48.726;9.248;2023-02-16T04:59:20;97862.66;;;1.30;95.27
44131;BME280;29792;48.726;9.248;2023-02-16T05:01:45;97872.91;;;1.24;94.81
44131;BME280;29792;48.726;9.248;2023-02-16T05:04:10;97863.91;;;1.15;95.26
44131;BME280;29792;48.726;9.248;2023-02-16T05:06:37;97863.34;;;1.05;95.23
44131;BME280;29792;48.726;9.248;2023-02-16T05:09:03;97863.50;;;0.99;95.62
44131;BME280;29792;48.726;9.248;2023-02-16T05:11:29;97866.25;;;0.92;96.51
44131;BME280;29792;48.726;9.248;2023-02-16T05:14:24;97868.97;;;0.84;96.16
44131;BME280;29792;48.726;9.248;2023-02-16T05:17:13;97867.44;;;0.80;96.34
44131;BME280;29792;48.726;9.248;2023-02-16T05:19:39;97863.28;;;0.77;97.11
44131;BME280;29792;48.726;9.248;2023-02-16T05:22:05;97866.72;;;0.75;97.68
44131;BME280;29792;48.726;9.248;2023-02-16T05:24:31;97868.47;;;0.73;97.85
44131;BME280;29792;48.726;9.248;2023-02-16T05:26:56;97873.59;;;0.70;98.08
44131;BME280;29792;48.726;9.248;2023-02-16T05:29:21;97869.41;;;0.69;97.90
44131;BME280;29792;48.726;9.248;2023-02-16T05:31:47;97877.78;;;0.69;98.30
44131;BME280;29792;48.726;9.248;2023-02-16T05:34:12;97877.78;;;0.69;97.90
44131;BME280;29792;48.726;9.248;2023-02-16T05:36:38;97877.78;;;0.69;98.00
44131;BME280;29792;48.726;9.248;2023-02-16T05:39:03;97879.41;;;0.72;98.33
44131;BME280;29792;48.726;9.248;2023-02-16T05:41:29;97881.97;;;0.70;98.26
44131;BME280;29792;48.726;9.248;2023-02-16T05:43:57;97883.69;;;0.68;98.38
44131;BME280;29792;48.726;9.248;2023-02-16T05:46:24;97884.56;;;0.67;98.74
44131;BME280;29792;48.726;9.248;2023-02-16T05:48:50;97882.06;;;0.66;98.45
44131;BME280;29792;48.726;9.248;2023-02-16T05:51:15;97886.34;;;0.64;99.04
44131;BME280;29792;48.726;9.248;2023-02-16T05:53:41;97889.75;;;0.63;99.28
44131;BME280;29792;48.726;9.248;2023-02-16T05:56:07;97885.59;;;0.60;99.45
44131;BME280;29792;48.726;9.248;2023-02-16T05:58:32;97890.72;;;0.57;99.53
44131;BME280;29792;48.726;9.248;2023-02-16T06:00:57;97891.63;;;0.55;99.30
44131;BME280;29792;48.726;9.248;2023-02-16T06:03:23;97890.88;;;0.51;98.91
44131;BME280;29792;48.726;9.248;2023-02-16T06:05:53;97890.97;;;0.48;99.59
44131;BME280;29792;48.726;9.248;2023-02-16T06:08:19;97896.06;;;0.45;99.29
44131;BME280;29792;48.726;9.248;2023-02-16T06:10:44;97907.88;;;0.43;99.14
44131;BME280;29792;48.726;9.248;2023-02-16T06:13:10;97903.72;;;0.42;99.62
44131;BME280;29792;48.726;9.248;2023-02-16T06:15:35;97911.22;;;0.44;99.91
44131;BME280;29792;48.726;9.248;2023-02-16T06:18:00;97911.22;;;0.44;100.00
44131;BME280;29792;48.726;9.248;2023-02-16T06:20:27;97909.56;;;0.43;100.00
44131;BME280;29792;48.726;9.248;2023-02-16T06:22:52;97911.25;;;0.42;99.91
44131;BME280;29792;48.726;9.248;2023-02-16T06:25:17;97921.34;;;0.42;99.63
44131;BME280;29792;48.726;9.248;2023-02-16T06:27:44;97922.34;;;0.36;99.97
44131;BME280;29792;48.726;9.248;2023-02-16T06:30:09;97930.03;;;0.32;100.00
44131;BME280;29792;48.726;9.248;2023-02-16T06:32:36;97931.72;;;0.31;100.00
44131;BME280;29792;48.726;9.248;2023-02-16T06:35:01;97923.31;;;0.31;100.00
44131;BME280;29792;48.726;9.248;2023-02-16T06:37:26;97918.28;;;0.31;100.00
44131;BME280;29792;48.726;9.248;2023-02-16T06:39:52;97924.19;;;0.30;100.00
44131;BME280;29792;48.726;9.248;2023-02-16T06:42:17;97929.22;;;0.30;100.00
44131;BME280;29792;48.726;9.248;2023-02-16T06:44:42;97927.56;;;0.29;100.00
44131;BME280;29792;48.726;9.248;2023-02-16T06:47:08;97925.91;;;0.28;100.00
44131;BME280;29792;48.726;9.248;2023-02-16T06:49:33;97927.59;;;0.27;100.00
44131;BME280;29792;48.726;9.248;2023-02-16T06:51:59;97932.63;;;0.27;100.00
44131;BME280;29792;48.726;9.248;2023-02-16T06:54:24;97929.28;;;0.27;100.00
44131;BME280;29792;48.726;9.248;2023-02-16T06:56:49;97926.78;;;0.27;100.00
44131;BME280;29792;48.726;9.248;2023-02-16T06:59:15;97933.47;;;0.28;100.00
44131;BME280;29792;48.726;9.248;2023-02-16T07:01:40;97933.41;;;0.31;100.00
44131;BME280;29792;48.726;9.248;2023-02-16T07:04:05;97932.44;;;0.35;100.00
44131;BME280;29792;48.726;9.248;2023-02-16T07:06:30;97924.81;;;0.38;100.00
44131;BME280;29792;48.726;9.248;2023-02-16T07:08:56;97932.22;;;0.44;100.00
44131;BME280;29792;48.726;9.248;2023-02-16T07:11:21;97934.59;;;0.50;100.00
44131;BME280;29792;48.726;9.248;2023-02-16T07:13:46;97934.09;;;0.70;100.00
44131;BME280;29792;48.726;9.248;2023-02-16T07:16:12;97927.34;;;1.31;100.00
44131;BME280;29792;48.726;9.248;2023-02-16T07:18:38;97929.25;;;2.08;100.00
44131;BME280;29792;48.726;9.248;2023-02-16T07:21:04;97924.97;;;2.86;100.00
44131;BME280;29792;48.726;9.248;2023-02-16T07:23:30;97923.38;;;3.53;100.00
44131;BME280;29792;48.726;9.248;2023-02-16T07:25:55;97926.91;;;4.14;100.00
44131;BME280;29792;48.726;9.248;2023-02-16T07:28:21;97921.25;;;4.70;100.00
44131;BME280;29792;48.726;9.248;2023-02-16T07:30:46;97927.47;;;4.83;96.62
44131;BME280;29792;48.726;9.248;2023-02-16T07:33:11;97934.41;;;4.98;94.06
44131;BME280;29792;48.726;9.248;2023-02-16T07:35:38;97930.13;;;5.38;93.55
44131;BME280;29792;48.726;9.248;2023-02-16T07:38:04;97938.44;;;5.98;93.17
44131;BME280;29792;48.726;9.248;2023-02-16T07:40:30;97934.47;;;6.63;91.27
44131;BME280;29792;48.726;9.248;2023-02-16T07:43:00;97924.84;;;7.18;88.55
44131;BME280;29792;48.726;9.248;2023-02-16T07:45:26;97925.06;;;7.78;86.43
44131;BME280;29792;48.726;9.248;2023-02-16T07:47:52;97923.19;;;8.43;81.43
44131;BME280;29792;48.726;9.248;2023-02-16T07:50:17;97930.94;;;8.99;77.72
44131;BME280;29792;48.726;9.248;2023-02-16T07:52:42;97935.31;;;9.54;73.69
44131;BME280;29792;48.726;9.248;2023-02-16T07:55:09;97937.44;;;9.88;69.24
44131;BME280;29792;48.726;9.248;2023-02-16T07:57:37;97942.81;;;10.25;67.25
44131;BME280;29792;48.726;9.248;2023-02-16T08:00:03;97944.75;;;10.74;66.02
44131;BME280;29792;48.726;9.248;2023-02-16T08:02:29;97944.88;;;11.23;62.35
44131;BME280;29792;48.726;9.248;2023-02-16T08:04:54;97953.38;;;11.48;60.43
44131;BME280;29792;48.726;9.248;2023-02-16T08:07:20;97962.91;;;11.46;58.66
44131;BME280;29792;48.726;9.248;2023-02-16T08:09:46;97952.97;;;11.42;57.92
44131;BME280;29792;48.726;9.248;2023-02-16T08:12:12;97959.84;;;11.41;57.20
44131;BME280;29792;48.726;9.248;2023-02-16T08:14:38;97958.94;;;11.42;57.15
44131;BME280;29792;48.726;9.248;2023-02-16T08:17:05;97954.50;;;11.44;57.17
44131;BME280;29792;48.726;9.248;2023-02-16T08:19:31;97956.75;;;11.49;56.39
44131;BME280;29792;48.726;9.248;2023-02-16T08:21:57;97953.56;;;11.45;56.36
44131;BME280;29792;48.726;9.248;2023-02-16T08:24:23;97954.28;;;11.47;56.73
44131;BME280;29792;48.726;9.248;2023-02-16T08:26:49;97950.19;;;11.58;56.36
44131;BME280;29792;48.726;9.248;2023-02-16T08:29:17;97953.84;;;11.66;56.63
44131;BME280;29792;48.726;9.248;2023-02-16T08:31:43;97951.06;;;11.82;55.83
44131;BME280;29792;48.726;9.248;2023-02-16T08:34:11;97953.19;;;11.88;55.03
44131;BME280;29792;48.726;9.248;2023-02-16T08:36:37;97952.94;;;11.67;55.17
44131;BME280;29792;48.726;9.248;2023-02-16T08:39:06;97959.84;;;11.29;55.60
44131;BME280;29792;48.726;9.248;2023-02-16T08:41:34;97967.44;;;10.92;56.10
44131;BME280;29792;48.726;9.248;2023-02-16T08:44:00;97965.13;;;10.50;55.67
44131;BME280;29792;48.726;9.248;2023-02-16T08:46:27;97959.84;;;10.12;56.47
44131;BME280;29792;48.726;9.248;2023-02-16T08:48:57;97958.66;;;9.76;57.38
44131;BME280;29792;48.726;9.248;2023-02-16T08:51:23;97964.97;;;9.42;57.69
44131;BME280;29792;48.726;9.248;2023-02-16T08:53:49;97962.59;;;9.11;59.52
44131;BME280;29792;48.726;9.248;2023-02-16T08:56:18;97968.69;;;8.80;60.20
44131;BME280;29792;48.726;9.248;2023-02-16T08:58:44;97966.69;;;8.55;61.37
44131;BME280;29792;48.726;9.248;2023-02-16T09:01:10;97963.38;;;8.39;63.04
44131;BME280;29792;48.726;9.248;2023-02-16T09:03:37;97962.47;;;8.24;64.31
44131;BME280;29792;48.726;9.248;2023-02-16T09:06:05;97968.22;;;8.12;65.08
44131;BME280;29792;48.726;9.248;2023-02-16T09:08:31;97963.31;;;8.09;65.93
44131;BME280;29792;48.726;9.248;2023-02-16T09:11:05;97961.31;;;8.14;66.64
44131;BME280;29792;48.726;9.248;2023-02-16T09:13:35;97961.63;;;8.24;69.12
44131;BME280;29792;48.726;9.248;2023-02-16T09:16:02;97952.31;;;8.38;71.41
44131;BME280;29792;48.726;9.248;2023-02-16T09:18:28;97952.75;;;8.61;72.01
44131;BME280;29792;48.726;9.248;2023-02-16T09:20:53;97952.09;;;8.87;71.24
44131;BME280;29792;48.726;9.248;2023-02-16T09:23:18;97946.00;;;9.18;70.69
44131;BME280;29792;48.726;9.248;2023-02-16T09:25:44;97946.81;;;9.47;70.49
44131;BME280;29792;48.726;9.248;2023-02-16T09:28:09;97952.69;;;9.76;68.75
44131;BME280;29792;48.726;9.248;2023-02-16T09:30:36;97954.56;;;10.01;69.07
44131;BME280;29792;48.726;9.248;2023-02-16T09:33:02;97952.53;;;10.20;68.48
44131;BME280;29792;48.726;9.248;2023-02-16T09:35:28;97952.38;;;10.36;67.16
44131;BME280;29792;48.726;9.248;2023-02-16T09:37:53;97946.34;;;10.49;65.66
44131;BME280;29792;48.726;9.248;2023-02-16T09:40:19;97946.50;;;10.60;64.51
44131;BME280;29792;48.726;9.248;2023-02-16T09:45:21;97950.19;;;10.82;63.55
44131;BME280;29792;48.726;9.248;2023-02-16T09:47:50;97951.75;;;10.97;62.34
44131;BME280;29792;48.726;9.248;2023-02-16T09:55:23;97945.66;;;11.48;59.74
44131;BME280;29792;48.726;9.248;2023-02-16T09:58:06;97941.84;;;11.67;57.03
44131;BME280;29792;48.726;9.248;2023-02-16T10:03:27;97949.63;;;12.14;58.96
44131;BME280;29792;48.726;9.248;2023-02-16T10:08:58;97941.09;;;12.49;59.80
44131;BME280;29792;48.726;9.248;2023-02-16T10:11:31;97932.06;;;12.67;58.74
44131;BME280;29792;48.726;9.248;2023-02-16T10:14:24;97934.56;;;12.91;60.14
44131;BME280;29792;48.726;9.248;2023-02-16T10:17:29;97936.59;;;13.32;60.31
44131;BME280;29792;48.726;9.248;2023-02-16T10:22:31;97932.31;;;14.41;58.59
44131;BME280;29792;48.726;9.248;2023-02-16T10:25:05;97933.50;;;15.20;55.28
44131;BME280;29792;48.726;9.248;2023-02-16T10:27:40;97925.66;;;16.21;54.42
44131;BME280;29792;48.726;9.248;2023-02-16T10:30:16;97929.19;;;17.24;50.58
44131;BME280;29792;48.726;9.248;2023-02-16T10:32:53;97936.25;;;18.14;48.91
44131;BME280;29792;48.726;9.248;2023-02-16T10:38:26;97929.63;;;19.92;43.18
44131;BME280;29792;48.726;9.248;2023-02-16T10:41:16;97917.41;;;20.59;40.85
44131;BME280;29792;48.726;9.248;2023-02-16T10:43:55;97918.31;;;20.99;39.53
44131;BME280;29792;48.726;9.248;2023-02-16T10:46:24;97923.28;;;21.32;39.08
44131;BME280;29792;48.726;9.248;2023-02-16T10:48:54;97916.81;;;21.67;37.22
44131;BME280;29792;48.726;9.248;2023-02-16T10:51:24;97914.56;;;21.95;36.50
44131;BME280;29792;48.726;9.248;2023-02-16T10:53:56;97913.03;;;22.09;36.36
44131;BME280;29792;48.726;9.248;2023-02-16T10:56:37;97909.66;;;21.92;36.16
44131;BME280;29792;48.726;9.248;2023-02-16T10:59:11;97908.25;;;21.51;36.71
44131;BME280;29792;48.726;9.248;2023-02-16T11:01:43;97903.28;;;21.09;37.44
44131;BME280;29792;48.726;9.248;2023-02-16T11:04:49;97910.69;;;20.89;38.75
44131;BME280;29792;48.726;9.248;2023-02-16T11:07:14;97904.47;;;20.98;37.90
44131;BME280;29792;48.726;9.248;2023-02-16T11:09:42;97893.59;;;21.42;37.92
44131;BME280;29792;48.726;9.248;2023-02-16T11:12:29;97901.06;;;22.15;36.84
44131;BME280;29792;48.726;9.248;2023-02-16T11:15:21;97893.84;;;23.00;34.21
44131;BME280;29792;48.726;9.248;2023-02-16T11:17:53;97891.81;;;23.90;34.25
44131;BME280;29792;48.726;9.248;2023-02-16T11:20:32;97881.97;;;24.56;32.08
44131;BME280;29792;48.726;9.248;2023-02-16T11:25:54;97884.56;;;25.94;29.40
44131;BME280;29792;48.726;9.248;2023-02-16T11:28:33;97875.91;;;26.19;28.51
44131;BME280;29792;48.726;9.248;2023-02-16T11:31:02;97877.19;;;26.56;28.47
44131;BME280;29792;48.726;9.248;2023-02-16T11:33:29;97876.72;;;26.86;26.67
44131;BME280;29792;48.726;9.248;2023-02-16T11:35:55;97874.72;;;26.29;26.72
44131;BME280;29792;48.726;9.248;2023-02-16T11:38:26;97878.84;;;25.29;28.09
44131;BME280;29792;48.726;9.248;2023-02-16T11:40:52;97866.16;;;24.21;29.46
44131;BME280;29792;48.726;9.248;2023-02-16T11:43:18;97868.78;;;23.49;29.43
44131;BME280;29792;48.726;9.248;2023-02-16T11:45:56;97862.91;;;22.74;29.81
44131;BME280;29792;48.726;9.248;2023-02-16T11:48:31;97864.16;;;21.95;30.83
44131;BME280;29792;48.726;9.248;2023-02-16T11:51:05;97864.59;;;20.98;31.65
44131;BME280;29792;48.726;9.248;2023-02-16T11:53:36;97862.69;;;20.18;32.35
44131;BME280;29792;48.726;9.248;2023-02-16T11:58:44;97853.63;;;18.80;34.58
44131;BME280;29792;48.726;9.248;2023-02-16T12:01:21;97852.25;;;18.33;35.77
44131;BME280;29792;48.726;9.248;2023-02-16T12:04:06;97847.94;;;17.98;36.13
44131;BME280;29792;48.726;9.248;2023-02-16T12:06:50;97836.72;;;17.62;36.70
44131;BME280;29792;48.726;9.248;2023-02-16T12:12:38;97840.47;;;17.22;38.46
44131;BME280;29792;48.726;9.248;2023-02-16T12:15:20;97838.88;;;17.11;39.22
44131;BME280;29792;48.726;9.248;2023-02-16T12:25:59;97818.19;;;16.55;39.90
44131;BME280;29792;48.726;9.248;2023-02-16T12:28:39;97818.63;;;16.51;40.47
44131;BME280;29792;48.726;9.248;2023-02-16T12:34:36;97814.66;;;16.56;40.59
44131;BME280;29792;48.726;9.248;2023-02-16T12:37:25;97813.44;;;16.60;41.69
44131;BME280;29792;48.726;9.248;2023-02-16T12:40:13;97804.19;;;16.67;40.77
44131;BME280;29792;48.726;9.248;2023-02-16T12:45:23;97798.88;;;16.59;39.86
44131;BME280;29792;48.726;9.248;2023-02-16T12:48:18;97793.59;;;16.61;41.12
44131;BME280;29792;48.726;9.248;2023-02-16T12:50:48;97797.50;;;16.74;41.53
44131;BME280;29792;48.726;9.248;2023-02-16T12:53:20;97797.97;;;16.88;41.03
44131;BME280;29792;48.726;9.248;2023-02-16T12:55:55;97782.84;;;16.93;41.03
44131;BME280;29792;48.726;9.248;2023-02-16T12:58:25;97775.91;;;16.93;40.87
44131;BME280;29792;48.726;9.248;2023-02-16T13:01:01;97773.00;;;16.96;41.29
44131;BME280;29792;48.726;9.248;2023-02-16T13:06:31;97766.69;;;17.08;41.20
44131;BME280;29792;48.726;9.248;2023-02-16T13:09:36;97763.41;;;17.06;40.45
44131;BME280;29792;48.726;9.248;2023-02-16T13:14:52;97760.97;;;17.05;41.32
44131;BME280;29792;48.726;9.248;2023-02-16T13:17:30;97746.00;;;17.26;42.37
44131;BME280;29792;48.726;9.248;2023-02-16T13:19:55;97748.00;;;17.85;42.64
44131;BME280;29792;48.726;9.248;2023-02-16T13:25:19;97747.38;;;20.26;37.83
44131;BME280;29792;48.726;9.248;2023-02-16T13:28:08;97751.06;;;20.64;35.80
44131;BME280;29792;48.726;9.248;2023-02-16T13:33:26;97751.84;;;20.73;35.35
44131;BME280;29792;48.726;9.248;2023-02-16T13:42:04;97743.66;;;20.04;35.30
44131;BME280;29792;48.726;9.248;2023-02-16T13:47:11;97738.31;;;19.65;35.35
44131;BME280;29792;48.726;9.248;2023-02-16T13:49:39;97744.56;;;19.38;36.30
44131;BME280;29792;48.726;9.248;2023-02-16T13:52:28;97744.06;;;19.19;37.56
44131;BME280;29792;48.726;9.248;2023-02-16T13:54:56;97745.94;;;19.00;37.26
44131;BME280;29792;48.726;9.248;2023-02-16T14:00:43;97745.75;;;18.34;37.31
44131;BME280;29792;48.726;9.248;2023-02-16T14:03:35;97744.53;;;18.20;38.49
44131;BME280;29792;48.726;9.248;2023-02-16T14:06:37;97742.97;;;18.27;38.59
44131;BME280;29792;48.726;9.248;2023-02-16T14:14:42;97743.00;;;18.95;36.32
44131;BME280;29792;48.726;9.248;2023-02-16T14:17:25;97743.03;;;18.61;36.92
44131;BME280;29792;48.726;9.248;2023-02-16T14:27:59;97748.81;;;17.86;39.44
44131;BME280;29792;48.726;9.248;2023-02-16T14:31:17;97746.50;;;17.75;39.33
44131;BME280;29792;48.726;9.248;2023-02-16T14:36:16;97747.66;;;17.63;39.74
44131;BME280;29792;48.726;9.248;2023-02-16T14:38:46;97750.81;;;17.57;39.65
44131;BME280;29792;48.726;9.248;2023-02-16T14:43:48;97766.47;;;17.20;40.26
44131;BME280;29792;48.726;9.248;2023-02-16T14:49:10;97759.88;;;16.80;40.75
44131;BME280;29792;48.726;9.248;2023-02-16T14:51:47;97762.66;;;16.59;41.36
44131;BME280;29792;48.726;9.248;2023-02-16T14:54:45;97766.94;;;16.31;42.17
44131;BME280;29792;48.726;9.248;2023-02-16T15:03:12;97776.78;;;15.89;43.18
44131;BME280;29792;48.726;9.248;2023-02-16T15:05:40;97779.25;;;15.81;43.33
44131;BME280;29792;48.726;9.248;2023-02-16T15:08:21;97775.75;;;15.73;43.58
44131;BME280;29792;48.726;9.248;2023-02-16T15:10:49;97778.31;;;15.63;43.82
44131;BME280;29792;48.726;9.248;2023-02-16T15:13:29;97773.16;;;15.63;44.25
44131;BME280;29792;48.726;9.248;2023-02-16T15:15:56;97778.03;;;15.66;44.58